Time;durP1;ratioP1;P1;durP2;ratioP2;P2;SDS_P1;SDS_P2;PMS_P1;PMS_P2;Temp;Humidity;BMP_temperature;BMP_pressure;BME280_temperature;BME280_humidity;BME280_pressure;Samples;Min_cycle;Max_cycle;Signal;HPM_P1;HPM_P2
2023/01/25 00:03:56;;;;;;;3.05;1.80;;;;;;;;;;10368238;28;20021;-58
2023/01/25 00:08:57;;;;;;;8.75;2.15;;;;;;;;;;10369499;28;20504;-56
2023/01/25 00:13:57;;;;;;;4.30;2.33;;;;;;;;;;10365161;28;20030;-50
2023/01/25 00:18:58;;;;;;;2.30;1.98;;;;;;;;;;10368471;28;20076;-50
2023/01/25 00:23:59;;;;;;;2.60;2.05;;;;;;;;;;10366679;28;20025;-49
2023/01/25 00:29:00;;;;;;;4.75;2.25;;;;;;;;;;10369549;28;20034;-48
2023/01/25 00:34:22;;;;;;;3.45;1.90;;;;;;;;;;10367628;28;20266;-54
2023/01/25 00:39:25;;;;;;;3.67;1.98;;;;;;;;;;10354759;28;20472;-47
2023/01/25 00:44:26;;;;;;;3.08;2.28;;;;;;;;;;10343387;28;20030;-51
2023/01/25 00:49:29;;;;;;;2.90;2.13;;;;;;;;;;10368860;28;20034;-55
2023/01/25 00:54:30;;;;;;;3.03;2.08;;;;;;;;;;10343925;28;20050;-54
2023/01/25 00:59:30;;;;;;;1.95;1.77;;;;;;;;;;10368453;28;20029;-53
2023/01/25 01:04:31;;;;;;;2.97;1.85;;;;;;;;;;10368159;28;20076;-65
2023/01/25 01:09:32;;;;;;;2.55;2.10;;;;;;;;;;10367854;28;20033;-50
2023/01/25 01:14:33;;;;;;;3.53;2.05;;;;;;;;;;10367876;28;20555;-62
2023/01/25 01:19:33;;;;;;;2.47;2.13;;;;;;;;;;10366915;28;20040;-52
2023/01/25 01:24:34;;;;;;;3.38;2.30;;;;;;;;;;10368668;28;20030;-55
2023/01/25 01:29:34;;;;;;;4.45;2.10;;;;;;;;;;10366995;28;20052;-50
2023/01/25 01:34:35;;;;;;;2.10;1.90;;;;;;;;;;10365984;28;20037;-55
2023/01/25 01:39:36;;;;;;;2.67;2.03;;;;;;;;;;10367174;28;20032;-51
2023/01/25 01:44:52;;;;;;;3.05;1.95;;;;;;;;;;10365709;28;20029;-47
2023/01/25 01:50:05;;;;;;;1.92;1.73;;;;;;;;;;10365180;28;20038;-46
2023/01/25 01:55:31;;;;;;;3.13;2.10;;;;;;;;;;10365838;28;20385;-49
2023/01/25 02:00:38;;;;;;;2.20;1.80;;;;;;;;;;10353451;28;20038;-46
2023/01/25 02:05:47;;;;;;;2.60;1.80;;;;;;;;;;10342921;28;20021;-68
2023/01/25 02:10:49;;;;;;;2.15;1.75;;;;;;;;;;10343824;28;20030;-65
2023/01/25 02:15:52;;;;;;;4.18;1.95;;;;;;;;;;10364920;28;20421;-47
2023/01/25 02:20:56;;;;;;;2.88;2.05;;;;;;;;;;10366110;28;20461;-47
2023/01/25 02:26:00;;;;;;;4.30;2.05;;;;;;;;;;10358565;28;20396;-47
2023/01/25 02:31:01;;;;;;;2.92;2.33;;;;;;;;;;10357590;28;20048;-64
2023/01/25 02:36:07;;;;;;;2.90;2.20;;;;;;;;;;10365244;28;20037;-61
2023/01/25 02:41:48;;;;;;;2.88;2.00;;;;;;;;;;10366231;28;20042;-65
2023/01/25 02:46:49;;;;;;;4.97;2.38;;;;;;;;;;10362215;28;20037;-59
2023/01/25 02:51:56;;;;;;;4.57;2.00;;;;;;;;;;10364505;28;20493;-71
2023/01/25 02:56:57;;;;;;;3.92;1.98;;;;;;;;;;10363486;28;20449;-61
2023/01/25 03:01:57;;;;;;;2.35;2.10;;;;;;;;;;10364344;28;20030;-49
2023/01/25 03:06:58;;;;;;;2.58;2.13;;;;;;;;;;10361921;28;20030;-50
2023/01/25 03:11:58;;;;;;;1.95;1.58;;;;;;;;;;10364009;28;20121;-51
2023/01/25 03:16:59;;;;;;;2.58;1.88;;;;;;;;;;10364133;28;20038;-53
2023/01/25 03:22:00;;;;;;;3.97;1.88;;;;;;;;;;10364157;28;20030;-53
2023/01/25 03:27:13;;;;;;;2.25;2.05;;;;;;;;;;10363625;28;20045;-47
2023/01/25 03:32:13;;;;;;;1.83;1.50;;;;;;;;;;10363568;28;20045;-47
2023/01/25 03:37:14;;;;;;;3.55;2.30;;;;;;;;;;10363627;28;20124;-68
2023/01/25 03:42:15;;;;;;;5.63;2.13;;;;;;;;;;10364567;28;20030;-65
2023/01/25 03:47:15;;;;;;;2.80;2.05;;;;;;;;;;10363004;28;20112;-56
2023/01/25 03:52:16;;;;;;;2.15;1.88;;;;;;;;;;10362738;28;20053;-62
2023/01/25 03:57:16;;;;;;;2.47;1.85;;;;;;;;;;10365738;28;20417;-63
2023/01/25 04:02:17;;;;;;;2.35;2.00;;;;;;;;;;10371069;28;20464;-62
2023/01/25 04:07:17;;;;;;;2.38;1.92;;;;;;;;;;10370579;28;20030;-68
2023/01/25 04:12:18;;;;;;;3.60;1.77;;;;;;;;;;10369339;28;20472;-70
2023/01/25 04:17:19;;;;;;;2.53;2.08;;;;;;;;;;10369738;28;20073;-60
2023/01/25 04:22:19;;;;;;;3.30;2.13;;;;;;;;;;10368756;28;20026;-69
2023/01/25 04:27:20;;;;;;;3.03;2.05;;;;;;;;;;10369494;28;20025;-64
2023/01/25 04:32:20;;;;;;;1.80;1.55;;;;;;;;;;10360991;28;20484;-67
2023/01/25 04:37:21;;;;;;;4.43;2.20;;;;;;;;;;10368401;28;20041;-70
2023/01/25 04:42:21;;;;;;;2.60;1.95;;;;;;;;;;10369094;28;20031;-67
2023/01/25 04:47:22;;;;;;;3.60;2.00;;;;;;;;;;10368681;28;20037;-70
2023/01/25 04:52:23;;;;;;;1.90;1.70;;;;;;;;;;10368461;28;20046;-66
2023/01/25 04:57:23;;;;;;;2.60;1.98;;;;;;;;;;10367476;28;20477;-68
2023/01/25 05:02:26;;;;;;;2.10;1.70;;;;;;;;;;10367621;28;20084;-64
2023/01/25 05:07:26;;;;;;;2.72;1.92;;;;;;;;;;10366643;28;20034;-68
2023/01/25 05:12:27;;;;;;;2.10;1.90;;;;;;;;;;10367499;28;20022;-68
2023/01/25 05:17:28;;;;;;;2.03;1.70;;;;;;;;;;10366731;28;20028;-70
2023/01/25 05:22:28;;;;;;;3.75;1.60;;;;;;;;;;10367252;28;20033;-72
2023/01/25 05:27:29;;;;;;;2.00;1.80;;;;;;;;;;10367640;28;20068;-61
2023/01/25 05:32:29;;;;;;;2.30;1.88;;;;;;;;;;10366684;28;20026;-67
2023/01/25 05:37:30;;;;;;;3.03;1.90;;;;;;;;;;10366251;28;20056;-60
2023/01/25 05:42:31;;;;;;;1.98;1.77;;;;;;;;;;10366608;28;20018;-66
2023/01/25 05:47:31;;;;;;;2.50;1.67;;;;;;;;;;10367457;28;20374;-57
2023/01/25 05:52:32;;;;;;;2.03;1.83;;;;;;;;;;10366089;28;20050;-49
2023/01/25 05:57:39;;;;;;;2.20;1.98;;;;;;;;;;10365448;28;20026;-47
2023/01/25 06:02:40;;;;;;;1.75;1.65;;;;;;;;;;10364628;28;20172;-50
2023/01/25 06:07:40;;;;;;;2.75;1.98;;;;;;;;;;10365413;28;20088;-51
2023/01/25 06:12:41;;;;;;;1.70;1.60;;;;;;;;;;10364188;28;20512;-65
2023/01/25 06:17:41;;;;;;;3.35;2.15;;;;;;;;;;10364847;28;20459;-52
2023/01/25 06:22:42;;;;;;;2.47;2.15;;;;;;;;;;10363003;28;20034;-58
2023/01/25 06:27:42;;;;;;;2.78;2.33;;;;;;;;;;10364929;28;20034;-71
2023/01/25 06:32:43;;;;;;;8.85;2.67;;;;;;;;;;10366096;28;20041;-59
2023/01/25 06:37:43;;;;;;;5.85;2.70;;;;;;;;;;10365891;28;20033;-64
2023/01/25 06:42:44;;;;;;;4.15;2.53;;;;;;;;;;10362610;28;20029;-58
2023/01/25 06:47:48;;;;;;;4.18;2.33;;;;;;;;;;10363477;28;20149;-60
2023/01/25 06:52:53;;;;;;;7.82;2.58;;;;;;;;;;10351607;28;20070;-62
2023/01/25 06:57:53;;;;;;;4.35;2.75;;;;;;;;;;10349790;28;20030;-61
2023/01/25 07:02:54;;;;;;;6.20;2.60;;;;;;;;;;10366488;28;20026;-56
2023/01/25 07:07:54;;;;;;;6.07;3.10;;;;;;;;;;10365677;28;20038;-57
2023/01/25 07:12:55;;;;;;;7.88;2.83;;;;;;;;;;10364003;28;20034;-64
2023/01/25 07:17:55;;;;;;;7.70;2.70;;;;;;;;;;10366062;28;20037;-48
2023/01/25 07:22:58;;;;;;;12.23;2.60;;;;;;;;;;10363231;28;20057;-61
2023/01/25 07:27:58;;;;;;;12.82;3.30;;;;;;;;;;10364639;28;20021;-61
2023/01/25 07:32:59;;;;;;;10.88;2.95;;;;;;;;;;10368372;28;20021;-61
2023/01/25 07:37:59;;;;;;;13.40;4.25;;;;;;;;;;10371746;28;20041;-63
2023/01/25 07:43:00;;;;;;;7.03;2.60;;;;;;;;;;10371339;28;20032;-58
2023/01/25 07:48:11;;;;;;;7.60;2.97;;;;;;;;;;10372100;28;20462;-62
2023/01/25 07:53:12;;;;;;;11.25;2.70;;;;;;;;;;10370593;28;20407;-62
2023/01/25 07:58:13;;;;;;;6.28;2.63;;;;;;;;;;10370581;28;20038;-61
2023/01/25 08:03:14;;;;;;;9.95;2.97;;;;;;;;;;10370862;28;20032;-63
2023/01/25 08:08:14;;;;;;;4.35;2.50;;;;;;;;;;10369656;28;20481;-52
2023/01/25 08:13:15;;;;;;;7.90;3.30;;;;;;;;;;10369860;28;20022;-62
2023/01/25 08:18:16;;;;;;;14.88;2.85;;;;;;;;;;10370727;28;20026;-58
2023/01/25 08:23:16;;;;;;;5.30;2.95;;;;;;;;;;10370200;28;20096;-56
2023/01/25 08:28:17;;;;;;;8.95;3.03;;;;;;;;;;10369640;28;20397;-49
2023/01/25 08:33:17;;;;;;;5.25;2.85;;;;;;;;;;10369580;28;20025;-59
2023/01/25 08:38:18;;;;;;;6.85;3.25;;;;;;;;;;10369384;28;20028;-47
2023/01/25 08:43:18;;;;;;;3.92;2.80;;;;;;;;;;10369097;28;20021;-47
2023/01/25 08:48:19;;;;;;;3.78;2.67;;;;;;;;;;10369211;28;20022;-61
2023/01/25 08:53:20;;;;;;;3.85;2.50;;;;;;;;;;10368563;28;20081;-58
2023/01/25 08:58:21;;;;;;;6.93;3.05;;;;;;;;;;10369031;28;20095;-57
2023/01/25 09:03:21;;;;;;;5.47;2.78;;;;;;;;;;10367409;28;20026;-57
2023/01/25 09:08:22;;;;;;;4.47;3.13;;;;;;;;;;10367382;28;20038;-63
2023/01/25 09:13:23;;;;;;;7.88;3.03;;;;;;;;;;10365180;28;20049;-48
2023/01/25 09:18:23;;;;;;;5.47;2.97;;;;;;;;;;10366046;28;20029;-58
2023/01/25 09:23:24;;;;;;;5.85;2.58;;;;;;;;;;10367656;28;20033;-45
2023/01/25 09:28:28;;;;;;;10.57;2.95;;;;;;;;;;10363881;28;20476;-63
2023/01/25 09:33:38;;;;;;;4.60;2.75;;;;;;;;;;10365515;28;20018;-59
2023/01/25 09:38:38;;;;;;;6.43;2.85;;;;;;;;;;10366086;28;20499;-63
2023/01/25 09:43:48;;;;;;;4.85;2.53;;;;;;;;;;10366169;28;20034;-61
2023/01/25 09:49:19;;;;;;;4.05;2.50;;;;;;;;;;10364978;28;20105;-62
2023/01/25 09:54:21;;;;;;;8.23;2.92;;;;;;;;;;10347293;28;20061;-62
2023/01/25 09:59:28;;;;;;;5.60;3.03;;;;;;;;;;10364237;28;20065;-48
2023/01/25 10:04:42;;;;;;;3.20;2.50;;;;;;;;;;10397514;28;20025;-63
2023/01/25 10:10:17;;;;;;;5.90;2.88;;;;;;;;;;10363434;28;20397;-56
2023/01/25 10:15:21;;;;;;;7.22;2.70;;;;;;;;;;10361865;28;21750;-55
2023/01/25 10:20:37;;;;;;;5.13;2.80;;;;;;;;;;10366301;28;20596;-60
2023/01/25 10:25:48;;;;;;;3.70;2.78;;;;;;;;;;10364532;28;20033;-63
2023/01/25 10:31:01;;;;;;;6.13;2.70;;;;;;;;;;10363897;28;20038;-58
2023/01/25 10:36:03;;;;;;;4.68;3.05;;;;;;;;;;10363247;28;20112;-62
2023/01/25 10:41:19;;;;;;;3.75;2.80;;;;;;;;;;10362976;28;20552;-62
2023/01/25 10:46:24;;;;;;;5.50;3.10;;;;;;;;;;10363068;28;20374;-64
2023/01/25 10:51:34;;;;;;;3.33;2.70;;;;;;;;;;10361159;28;20509;-63
2023/01/25 10:56:38;;;;;;;5.70;2.60;;;;;;;;;;10363995;28;20425;-63
2023/01/25 11:01:38;;;;;;;3.83;2.70;;;;;;;;;;10364667;28;20048;-63
2023/01/25 11:06:49;;;;;;;3.20;2.88;;;;;;;;;;10369229;28;20030;-57
2023/01/25 11:12:18;;;;;;;3.50;2.80;;;;;;;;;;10371351;28;20034;-63
2023/01/25 11:17:31;;;;;;;2.58;2.38;;;;;;;;;;10372504;28;20082;-58
2023/01/25 11:22:32;;;;;;;3.45;2.90;;;;;;;;;;10382005;28;20110;-59
2023/01/25 11:27:32;;;;;;;3.85;2.50;;;;;;;;;;10372041;28;20054;-49
2023/01/25 11:32:33;;;;;;;3.50;2.80;;;;;;;;;;10378096;28;20018;-55
2023/01/25 11:38:02;;;;;;;3.45;2.60;;;;;;;;;;10371750;28;20036;-53
2023/01/25 11:43:26;;;;;;;3.30;2.60;;;;;;;;;;10366859;28;20072;-61
2023/01/25 11:48:47;;;;;;;9.13;3.33;;;;;;;;;;10369939;28;20040;-51
2023/01/25 11:54:21;;;;;;;3.80;2.58;;;;;;;;;;10359081;28;20524;-57
2023/01/25 11:59:57;;;;;;;4.78;2.80;;;;;;;;;;10371760;28;20474;-56
2023/01/25 12:05:48;;;;;;;3.47;2.78;;;;;;;;;;10368664;28;20123;-57
2023/01/25 12:11:13;;;;;;;5.55;2.75;;;;;;;;;;10346239;28;20049;-56
2023/01/25 12:16:49;;;;;;;5.38;2.47;;;;;;;;;;10368587;28;20096;-56
2023/01/25 12:22:22;;;;;;;4.80;2.60;;;;;;;;;;10358088;28;20156;-52
2023/01/25 12:27:46;;;;;;;4.70;3.13;;;;;;;;;;10368819;28;20355;-48
2023/01/25 12:32:54;;;;;;;3.30;2.53;;;;;;;;;;10371356;28;20026;-55
2023/01/25 12:38:03;;;;;;;3.95;2.90;;;;;;;;;;10352257;28;20030;-51
2023/01/25 12:43:15;;;;;;;3.90;2.55;;;;;;;;;;10373289;28;20036;-54
2023/01/25 12:48:30;;;;;;;4.15;2.75;;;;;;;;;;10351047;28;20070;-54
2023/01/25 12:53:47;;;;;;;3.97;2.42;;;;;;;;;;10378913;28;20069;-52
2023/01/25 12:59:29;;;;;;;4.28;2.67;;;;;;;;;;10374155;28;20056;-56
2023/01/25 13:04:32;;;;;;;4.13;2.90;;;;;;;;;;10365349;28;20028;-53
2023/01/25 13:09:54;;;;;;;3.78;2.88;;;;;;;;;;10370239;28;20500;-51
2023/01/25 13:14:54;;;;;;;3.25;2.40;;;;;;;;;;10363286;28;20026;-51
2023/01/25 13:19:55;;;;;;;6.78;2.58;;;;;;;;;;10367230;28;20030;-57
2023/01/25 13:25:02;;;;;;;4.78;2.47;;;;;;;;;;10367986;28;20030;-61
2023/01/25 13:30:33;;;;;;;3.17;2.72;;;;;;;;;;10371387;28;20034;-55
2023/01/25 13:35:38;;;;;;;5.97;2.78;;;;;;;;;;10372171;28;20073;-59
2023/01/25 13:40:40;;;;;;;6.55;3.00;;;;;;;;;;10367531;28;20033;-51
2023/01/25 13:45:41;;;;;;;2.97;2.30;;;;;;;;;;10376662;28;20103;-58
2023/01/25 13:50:52;;;;;;;3.90;2.70;;;;;;;;;;10372436;28;20077;-45
2023/01/25 13:55:56;;;;;;;3.53;2.63;;;;;;;;;;10358731;28;20117;-49
2023/01/25 14:01:07;;;;;;;18.23;3.08;;;;;;;;;;10367669;28;20038;-52
2023/01/25 14:06:22;;;;;;;3.65;2.75;;;;;;;;;;10356810;28;20030;-54
2023/01/25 14:11:28;;;;;;;5.22;2.80;;;;;;;;;;10361031;28;20112;-53
2023/01/25 14:16:31;;;;;;;6.60;2.75;;;;;;;;;;10362521;28;20464;-59
2023/01/25 14:21:31;;;;;;;5.78;2.67;;;;;;;;;;10362753;28;20109;-62
2023/01/25 14:26:33;;;;;;;4.30;2.67;;;;;;;;;;10362226;28;20036;-59
2023/01/25 14:31:38;;;;;;;4.97;2.42;;;;;;;;;;10361184;28;20029;-52
2023/01/25 14:36:39;;;;;;;3.05;2.55;;;;;;;;;;10357685;28;20037;-55
2023/01/25 14:41:42;;;;;;;7.43;3.00;;;;;;;;;;10355873;28;20401;-64
2023/01/25 14:46:43;;;;;;;3.33;2.60;;;;;;;;;;10363349;28;20030;-65
2023/01/25 14:52:02;;;;;;;4.88;2.70;;;;;;;;;;10359585;28;20123;-61
2023/01/25 14:57:07;;;;;;;;;;;;;;;;;;10364682;28;20030;-59
2023/01/25 15:02:29;;;;;;;5.07;2.47;;;;;;;;;;10363572;28;19917;-64
2023/01/25 15:07:56;;;;;;;3.70;2.40;;;;;;;;;;10361552;28;20424;-61
2023/01/25 15:13:00;;;;;;;4.53;2.50;;;;;;;;;;10360733;28;20505;-60
2023/01/25 15:18:01;;;;;;;4.82;2.60;;;;;;;;;;10361491;28;20644;-46
2023/01/25 15:23:24;;;;;;;4.40;2.63;;;;;;;;;;10349554;28;20389;-54
2023/01/25 15:28:29;;;;;;;9.70;2.70;;;;;;;;;;10347275;28;20594;-48
2023/01/25 15:33:31;;;;;;;5.20;2.88;;;;;;;;;;10360860;28;20057;-56
2023/01/25 15:38:31;;;;;;;6.65;3.15;;;;;;;;;;10362386;28;20046;-62
2023/01/25 15:43:32;;;;;;;3.92;2.65;;;;;;;;;;10353929;28;20039;-63
2023/01/25 15:48:37;;;;;;;6.82;2.72;;;;;;;;;;10359977;28;20025;-54
2023/01/25 15:53:38;;;;;;;3.95;2.45;;;;;;;;;;10361692;28;20042;-65
2023/01/25 15:58:42;;;;;;;5.47;2.75;;;;;;;;;;10369493;28;20045;-53
2023/01/25 16:03:43;;;;;;;5.32;2.45;;;;;;;;;;10365804;28;20367;-58
2023/01/25 16:08:44;;;;;;;4.90;2.60;;;;;;;;;;10370153;28;20038;-62
2023/01/25 16:13:44;;;;;;;4.05;2.40;;;;;;;;;;10369873;28;20139;-64
2023/01/25 16:18:45;;;;;;;3.38;2.63;;;;;;;;;;10369860;28;20049;-62
2023/01/25 16:23:46;;;;;;;3.65;2.85;;;;;;;;;;10369308;28;20515;-64
2023/01/25 16:28:46;;;;;;;8.68;2.42;;;;;;;;;;10368840;28;20049;-63
2023/01/25 16:33:47;;;;;;;4.20;2.55;;;;;;;;;;10368941;28;20041;-63
2023/01/25 16:38:47;;;;;;;4.70;2.60;;;;;;;;;;10367161;28;20034;-64
2023/01/25 16:43:48;;;;;;;4.05;2.63;;;;;;;;;;10368287;28;20034;-65
2023/01/25 16:48:51;;;;;;;4.22;2.42;;;;;;;;;;10368544;28;20038;-63
2023/01/25 16:53:56;;;;;;;4.45;2.40;;;;;;;;;;10369697;28;20045;-70
2023/01/25 16:59:01;;;;;;;8.68;2.78;;;;;;;;;;10366458;28;20029;-65
2023/01/25 17:04:01;;;;;;;3.20;2.42;;;;;;;;;;10369068;28;20156;-66
2023/01/25 17:09:06;;;;;;;8.98;2.65;;;;;;;;;;10367389;28;20230;-68
2023/01/25 17:14:14;;;;;;;4.32;2.70;;;;;;;;;;10367879;28;20106;-69
2023/01/25 17:19:16;;;;;;;7.35;3.22;;;;;;;;;;10365705;28;20026;-65
2023/01/25 17:24:20;;;;;;;6.45;2.55;;;;;;;;;;10372123;28;20436;-54
2023/01/25 17:29:21;;;;;;;4.40;2.58;;;;;;;;;;10372169;28;20041;-66
2023/01/25 17:34:22;;;;;;;7.75;2.60;;;;;;;;;;10367633;28;20029;-50
2023/01/25 17:39:23;;;;;;;3.20;2.42;;;;;;;;;;10369070;28;20120;-64
2023/01/25 17:44:24;;;;;;;9.18;2.42;;;;;;;;;;10364314;28;20017;-56
2023/01/25 17:49:29;;;;;;;3.42;2.65;;;;;;;;;;10367084;28;20052;-67
2023/01/25 17:54:29;;;;;;;8.23;3.05;;;;;;;;;;10359512;28;20273;-64
2023/01/25 17:59:30;;;;;;;4.53;2.85;;;;;;;;;;10366667;28;20300;-57
2023/01/25 18:04:33;;;;;;;7.28;3.20;;;;;;;;;;10365877;28;20038;-53
2023/01/25 18:09:34;;;;;;;3.50;2.63;;;;;;;;;;10364925;28;20509;-50
2023/01/25 18:14:35;;;;;;;5.57;3.33;;;;;;;;;;10366072;28;20116;-63
2023/01/25 18:19:36;;;;;;;7.60;2.75;;;;;;;;;;10356456;28;20030;-53
2023/01/25 18:24:37;;;;;;;7.07;2.80;;;;;;;;;;10364665;28;20025;-58
2023/01/25 18:29:54;;;;;;;5.03;2.42;;;;;;;;;;10345253;28;20030;-55
2023/01/25 18:34:55;;;;;;;6.38;3.00;;;;;;;;;;10353552;28;20042;-56
2023/01/25 18:39:56;;;;;;;6.60;2.90;;;;;;;;;;10365089;28;20030;-52
2023/01/25 18:44:56;;;;;;;4.93;2.50;;;;;;;;;;10364350;28;20033;-45
2023/01/25 18:49:57;;;;;;;7.65;2.88;;;;;;;;;;10362635;28;20041;-56
2023/01/25 18:54:57;;;;;;;4.22;3.00;;;;;;;;;;10360971;28;20046;-61
2023/01/25 18:59:58;;;;;;;6.32;2.80;;;;;;;;;;10367260;28;20033;-58
2023/01/25 19:04:59;;;;;;;4.18;2.83;;;;;;;;;;10363979;28;20033;-63
2023/01/25 19:09:59;;;;;;;3.25;2.25;;;;;;;;;;10360963;28;20029;-56
2023/01/25 19:15:00;;;;;;;2.88;2.35;;;;;;;;;;10366237;28;20080;-64
2023/01/25 19:20:01;;;;;;;4.53;2.67;;;;;;;;;;10363512;28;20030;-65
2023/01/25 19:25:02;;;;;;;5.05;2.60;;;;;;;;;;10366151;28;20026;-50
2023/01/25 19:30:03;;;;;;;5.55;3.10;;;;;;;;;;10369679;28;20516;-48
2023/01/25 19:35:05;;;;;;;3.95;2.92;;;;;;;;;;10366946;28;20381;-52
2023/01/25 19:40:07;;;;;;;4.47;3.40;;;;;;;;;;10372311;28;20446;-54
2023/01/25 19:45:08;;;;;;;7.15;3.38;;;;;;;;;;10366689;28;20489;-59
2023/01/25 19:50:15;;;;;;;4.30;3.17;;;;;;;;;;10371540;28;20029;-50
2023/01/25 19:55:16;;;;;;;4.15;3.10;;;;;;;;;;10372419;28;20096;-55
2023/01/25 20:00:18;;;;;;;4.47;2.75;;;;;;;;;;10372178;28;20540;-56
2023/01/25 20:05:20;;;;;;;5.28;3.40;;;;;;;;;;10371050;28;20216;-52
2023/01/25 20:10:22;;;;;;;4.93;3.28;;;;;;;;;;10371983;28;20400;-53
2023/01/25 20:15:22;;;;;;;5.78;2.88;;;;;;;;;;10371038;28;20022;-52
2023/01/25 20:20:23;;;;;;;6.38;3.53;;;;;;;;;;10371414;28;20030;-46
2023/01/25 20:25:24;;;;;;;9.20;4.03;;;;;;;;;;10372846;28;20029;-53
2023/01/25 20:30:29;;;;;;;11.55;3.90;;;;;;;;;;10368666;28;20099;-48
2023/01/25 20:35:30;;;;;;;10.60;3.97;;;;;;;;;;10370112;28;20492;-47
2023/01/25 20:40:30;;;;;;;18.27;4.00;;;;;;;;;;10367235;28;20022;-46
2023/01/25 20:45:31;;;;;;;13.65;3.63;;;;;;;;;;10366493;28;20036;-53
2023/01/25 20:50:31;;;;;;;13.45;3.42;;;;;;;;;;10368416;28;20041;-54
2023/01/25 20:55:32;;;;;;;12.45;3.28;;;;;;;;;;10367211;28;20030;-68
2023/01/25 21:00:33;;;;;;;6.07;3.50;;;;;;;;;;10367898;28;20030;-67
2023/01/25 21:05:33;;;;;;;8.07;3.47;;;;;;;;;;10362797;28;20040;-67
2023/01/25 21:10:34;;;;;;;12.07;3.53;;;;;;;;;;10368399;28;20551;-49
2023/01/25 21:15:34;;;;;;;5.45;3.10;;;;;;;;;;10368265;28;20478;-66
2023/01/25 21:20:35;;;;;;;14.52;4.20;;;;;;;;;;10366690;28;20552;-66
2023/01/25 21:25:36;;;;;;;6.32;3.25;;;;;;;;;;10368837;28;20493;-48
2023/01/25 21:30:36;;;;;;;5.07;3.10;;;;;;;;;;10369213;28;20026;-65
2023/01/25 21:35:37;;;;;;;7.43;3.15;;;;;;;;;;10368777;28;20076;-67
2023/01/25 21:40:37;;;;;;;4.50;3.20;;;;;;;;;;10368735;28;20018;-61
2023/01/25 21:56:33;;;;;;;4.88;3.15;;;;;;;;;;10241773;28;20642;-68
2023/01/25 22:01:34;;;;;;;5.88;3.53;;;;;;;;;;10240273;29;20040;-63
2023/01/25 22:06:35;;;;;;;5.50;3.15;;;;;;;;;;10241871;28;20697;-47
2023/01/25 22:11:36;;;;;;;5.05;3.33;;;;;;;;;;10227026;28;20078;-46
2023/01/25 22:16:36;;;;;;;7.20;3.05;;;;;;;;;;10241977;28;20047;-47
2023/01/25 22:21:37;;;;;;;5.68;3.20;;;;;;;;;;10241317;28;20402;-47
2023/01/25 22:26:57;;;;;;;6.72;3.60;;;;;;;;;;10377212;28;20037;-45
2023/01/25 22:31:57;;;;;;;5.13;3.55;;;;;;;;;;10366298;28;20075;-46
2023/01/25 22:36:58;;;;;;;4.88;3.03;;;;;;;;;;10364601;28;20076;-46
2023/01/25 22:41:59;;;;;;;5.50;3.53;;;;;;;;;;10362537;28;20042;-46
2023/01/25 22:46:59;;;;;;;6.68;3.10;;;;;;;;;;10363365;28;20037;-46
2023/01/25 22:52:00;;;;;;;4.45;3.05;;;;;;;;;;10352496;28;20042;-50
2023/01/25 22:57:01;;;;;;;5.40;3.60;;;;;;;;;;10361838;28;20037;-46
2023/01/25 23:02:01;;;;;;;6.78;4.43;;;;;;;;;;10356261;28;20049;-46
2023/01/25 23:07:11;;;;;;;9.98;5.28;;;;;;;;;;10366373;28;20053;-47
2023/01/25 23:12:11;;;;;;;5.85;4.43;;;;;;;;;;10361865;28;20050;-57
2023/01/25 23:22:31;;;;;;;13.95;5.57;;;;;;;;;;10372644;28;20723;-60
2023/01/25 23:27:32;;;;;;;18.48;5.43;;;;;;;;;;10371330;28;20037;-57
2023/01/25 23:32:32;;;;;;;9.27;4.88;;;;;;;;;;10372175;28;20448;-53
2023/01/25 23:37:33;;;;;;;10.45;4.63;;;;;;;;;;10372504;28;20555;-45
2023/01/25 23:42:35;;;;;;;11.85;5.50;;;;;;;;;;10372817;28;20025;-48
2023/01/25 23:47:36;;;;;;;9.73;5.18;;;;;;;;;;10371352;28;20113;-49
2023/01/25 23:52:37;;;;;;;9.05;5.32;;;;;;;;;;10372817;28;20044;-45
2023/01/25 23:57:37;;;;;;;9.88;4.95;;;;;;;;;;10371167;28;20022;-49
